Time;durP1;ratioP1;P1;durP2;ratioP2;P2;SDS_P1;SDS_P2;PMS_P1;PMS_P2;Temp;Humidity;BMP_temperature;BMP_pressure;BME280_temperature;BME280_humidity;BME280_pressure;Samples;Min_cycle;Max_cycle;Signal;HPM_P1;HPM_P2
2022/05/19 00:02:13;;;;;;;6.95;3.78;;;18.90;99.90;;;;;;5021915;28;20037;-67
2022/05/19 00:04:40;;;;;;;16.98;3.95;;;18.80;99.90;;;;;;5025944;28;20578;-70
2022/05/19 00:07:07;;;;;;;11.82;4.00;;;18.80;99.90;;;;;;5023536;28;20598;-69
2022/05/19 00:09:33;;;;;;;11.05;4.55;;;18.80;99.90;;;;;;5027299;28;20053;-67
2022/05/19 00:12:01;;;;;;;7.25;3.38;;;18.70;99.90;;;;;;5025969;28;20037;-69
2022/05/19 00:14:27;;;;;;;9.18;3.88;;;18.80;99.90;;;;;;5015146;28;20038;-68
2022/05/19 00:16:56;;;;;;;8.10;3.55;;;18.70;99.90;;;;;;5026244;28;20025;-68
2022/05/19 00:19:22;;;;;;;11.57;3.83;;;18.70;99.90;;;;;;5027786;28;20037;-68
2022/05/19 00:21:48;;;;;;;10.55;4.15;;;18.70;99.90;;;;;;5027945;28;20044;-67
2022/05/19 00:24:14;;;;;;;9.77;3.83;;;18.60;99.90;;;;;;5025708;28;20083;-67
2022/05/19 00:26:39;;;;;;;7.07;3.60;;;18.60;99.90;;;;;;5027061;28;20124;-68
2022/05/19 00:29:05;;;;;;;12.07;3.53;;;18.60;99.90;;;;;;5027268;28;20397;-68
2022/05/19 00:31:32;;;;;;;14.02;4.35;;;18.50;99.90;;;;;;5014209;28;20026;-69
2022/05/19 00:33:58;;;;;;;10.05;4.50;;;18.60;99.90;;;;;;5003234;28;20048;-67
2022/05/19 00:36:24;;;;;;;9.32;3.42;;;18.60;99.90;;;;;;5021401;28;20116;-67
2022/05/19 00:38:50;;;;;;;9.18;4.00;;;18.50;99.90;;;;;;5025511;28;20228;-68
2022/05/19 00:41:15;;;;;;;9.88;3.95;;;18.60;99.90;;;;;;5027434;28;20056;-67
2022/05/19 00:43:56;;;;;;;9.18;3.78;;;18.60;99.90;;;;;;5026762;28;20041;-67
2022/05/19 00:46:28;;;;;;;8.45;3.92;;;18.50;99.90;;;;;;5020177;28;20032;-67
2022/05/19 00:49:09;;;;;;;8.48;4.10;;;18.50;99.90;;;;;;5026897;28;20029;-67
2022/05/19 00:51:50;;;;;;;10.27;3.95;;;18.50;99.90;;;;;;5022788;28;20053;-67
2022/05/19 00:54:20;;;;;;;12.90;3.92;;;18.50;99.90;;;;;;5027105;28;20034;-67
2022/05/19 00:56:46;;;;;;;;;;;18.40;99.90;;;;;;5026092;28;20899;-69
2022/05/19 00:59:18;;;;;;;10.25;4.20;;;18.40;99.90;;;;;;5027171;28;19913;-67
2022/05/19 01:01:44;;;;;;;11.85;4.57;;;18.40;99.90;;;;;;5025308;28;20041;-67
2022/05/19 01:04:36;;;;;;;7.25;4.32;;;18.40;99.90;;;;;;5026736;28;20082;-67
2022/05/19 01:07:07;;;;;;;6.70;3.78;;;18.50;99.90;;;;;;5025226;28;20047;-68
2022/05/19 01:09:35;;;;;;;8.45;4.30;;;18.50;99.90;;;;;;5026974;28;20112;-67
2022/05/19 01:12:03;;;;;;;12.98;4.50;;;18.50;99.90;;;;;;5027035;28;20030;-67
2022/05/19 01:14:30;;;;;;;15.48;4.57;;;18.50;99.90;;;;;;5024903;28;20037;-67
2022/05/19 01:16:56;;;;;;;12.07;4.68;;;18.50;99.90;;;;;;5026587;28;20048;-68
2022/05/19 01:19:46;;;;;;;12.13;4.47;;;18.60;99.90;;;;;;5027298;28;20041;-69
2022/05/19 01:22:35;;;;;;;8.02;4.85;;;18.50;99.90;;;;;;5025018;28;20037;-67
2022/05/19 01:25:17;;;;;;;14.40;4.85;;;18.60;99.90;;;;;;5015201;28;20108;-67
2022/05/19 01:27:42;;;;;;;9.02;5.00;;;18.50;99.90;;;;;;5026670;28;20038;-67
2022/05/19 01:30:10;;;;;;;8.77;4.80;;;18.60;99.90;;;;;;5026809;28;20131;-67
2022/05/19 01:32:36;;;;;;;8.73;4.30;;;18.60;99.90;;;;;;5026364;28;20037;-67
2022/05/19 01:35:04;;;;;;;12.93;5.07;;;18.60;99.90;;;;;;5026680;28;20041;-67
2022/05/19 01:37:30;;;;;;;12.20;5.47;;;18.60;99.90;;;;;;5027138;28;20518;-67
2022/05/19 01:40:18;;;;;;;17.45;5.60;;;18.70;99.90;;;;;;5025130;28;20129;-67
2022/05/19 01:42:49;;;;;;;10.55;5.35;;;18.60;99.90;;;;;;5025596;28;20042;-69
2022/05/19 01:45:42;;;;;;;14.77;5.18;;;18.70;99.90;;;;;;5019720;28;20454;-67
2022/05/19 01:48:20;;;;;;;8.68;4.93;;;18.70;99.90;;;;;;5018228;28;20037;-67
2022/05/19 01:51:18;;;;;;;11.13;5.40;;;18.60;99.90;;;;;;5018044;28;20092;-67
2022/05/19 01:53:56;;;;;;;15.30;4.88;;;18.60;99.90;;;;;;5001647;28;20124;-68
2022/05/19 01:56:50;;;;;;;10.07;5.57;;;18.50;99.90;;;;;;5019340;28;20041;-67
2022/05/19 01:59:22;;;;;;;10.45;5.50;;;18.50;99.90;;;;;;5010581;28;20078;-67
2022/05/19 02:02:21;;;;;;;13.73;5.05;;;18.60;99.90;;;;;;5018096;28;20514;-67
2022/05/19 02:04:53;;;;;;;12.63;5.03;;;18.70;99.90;;;;;;5016397;28;20165;-67
2022/05/19 02:07:20;;;;;;;10.32;5.78;;;18.70;99.90;;;;;;5020830;28;20033;-67
2022/05/19 02:09:49;;;;;;;12.07;5.40;;;18.70;99.90;;;;;;5019644;28;20049;-68
2022/05/19 02:12:14;;;;;;;11.52;5.07;;;18.80;99.90;;;;;;5031513;28;20037;-68
2022/05/19 02:14:48;;;;;;;13.00;5.82;;;18.80;99.90;;;;;;5036155;28;20041;-67
2022/05/19 02:17:19;;;;;;;11.90;5.57;;;18.80;99.90;;;;;;5031067;28;20033;-69
2022/05/19 02:19:51;;;;;;;10.30;5.90;;;18.80;99.90;;;;;;5023345;28;20030;-67
2022/05/19 02:22:19;;;;;;;10.10;5.57;;;18.80;99.90;;;;;;5021604;28;20485;-67
2022/05/19 02:24:56;;;;;;;17.70;6.72;;;18.80;99.90;;;;;;5016744;28;20428;-67
2022/05/19 02:27:21;;;;;;;16.48;7.13;;;18.90;99.90;;;;;;5021535;28;20120;-70
2022/05/19 02:29:47;;;;;;;17.95;7.25;;;18.90;99.90;;;;;;5027022;28;20105;-68
2022/05/19 02:32:13;;;;;;;14.15;6.75;;;18.90;99.90;;;;;;5026475;28;20029;-67
2022/05/19 02:34:38;;;;;;;12.93;6.15;;;18.90;99.90;;;;;;5025792;28;20030;-67
2022/05/19 02:37:06;;;;;;;20.65;7.38;;;19.00;99.90;;;;;;5028900;28;20034;-67
2022/05/19 02:39:32;;;;;;;18.40;7.55;;;18.90;99.90;;;;;;5029177;28;20029;-69
2022/05/19 02:41:57;;;;;;;17.42;6.68;;;18.90;99.90;;;;;;5027818;28;20033;-68
2022/05/19 02:44:23;;;;;;;15.15;6.97;;;19.00;99.90;;;;;;5028936;28;20035;-67
2022/05/19 02:46:48;;;;;;;14.23;6.80;;;19.00;99.90;;;;;;5029047;28;20564;-71
2022/05/19 02:49:14;;;;;;;24.88;8.43;;;19.10;99.90;;;;;;5030146;28;20105;-68
2022/05/19 02:51:39;;;;;;;22.77;8.98;;;19.10;99.90;;;;;;5026422;28;20033;-69
2022/05/19 02:54:05;;;;;;;21.45;8.85;;;19.10;99.90;;;;;;5027149;28;20382;-67
2022/05/19 02:56:31;;;;;;;19.92;8.88;;;18.90;99.90;;;;;;5028926;28;20053;-68
2022/05/19 02:58:56;;;;;;;22.48;9.05;;;18.70;99.90;;;;;;5027553;28;20557;-67
2022/05/19 03:01:22;;;;;;;18.10;6.55;;;18.50;99.90;;;;;;5017902;28;20397;-68
2022/05/19 03:03:48;;;;;;;16.33;5.88;;;18.30;99.90;;;;;;5012219;28;20450;-68
2022/05/19 03:06:14;;;;;;;13.55;3.85;;;18.00;99.90;;;;;;5026193;28;20025;-67
2022/05/19 03:08:39;;;;;;;4.95;1.92;;;17.80;99.90;;;;;;5028353;28;20646;-67
2022/05/19 03:11:05;;;;;;;10.02;1.75;;;17.60;99.90;;;;;;5028375;28;20033;-67
2022/05/19 03:13:30;;;;;;;3.47;1.40;;;17.40;99.90;;;;;;5024519;28;20033;-67
2022/05/19 03:15:56;;;;;;;5.43;0.90;;;17.20;99.90;;;;;;5027266;28;20042;-67
2022/05/19 03:18:22;;;;;;;4.53;0.60;;;17.00;99.90;;;;;;5017223;28;20021;-67
2022/05/19 03:20:47;;;;;;;1.98;0.45;;;16.90;99.90;;;;;;5021215;28;20034;-67
2022/05/19 03:23:14;;;;;;;0.77;0.47;;;16.90;99.90;;;;;;5026188;28;20430;-67
2022/05/19 03:25:39;;;;;;;3.50;0.40;;;16.80;99.90;;;;;;5025611;28;20034;-68
2022/05/19 03:28:05;;;;;;;3.08;0.40;;;16.80;99.90;;;;;;5027050;28;20053;-67
2022/05/19 03:30:31;;;;;;;3.10;0.50;;;16.70;99.90;;;;;;5027016;28;20083;-67
2022/05/19 03:32:56;;;;;;;2.00;0.50;;;16.70;99.90;;;;;;5027564;28;20033;-68
2022/05/19 03:35:22;;;;;;;1.42;0.68;;;16.70;99.90;;;;;;5028890;28;20029;-68
2022/05/19 03:37:48;;;;;;;0.80;0.40;;;16.70;99.90;;;;;;5027211;28;20435;-67
2022/05/19 03:40:16;;;;;;;2.33;0.80;;;16.70;99.90;;;;;;5026590;28;20041;-67
2022/05/19 03:42:41;;;;;;;2.10;0.50;;;16.70;99.90;;;;;;5018528;28;20139;-67
2022/05/19 03:45:08;;;;;;;1.67;0.90;;;16.60;99.90;;;;;;5026932;28;20037;-68
2022/05/19 03:47:33;;;;;;;3.20;0.40;;;16.60;99.90;;;;;;5026141;28;20049;-67
2022/05/19 03:49:59;;;;;;;1.35;0.70;;;16.60;99.90;;;;;;5027749;28;20041;-68
2022/05/19 03:52:25;;;;;;;1.65;0.63;;;16.70;99.90;;;;;;5027841;28;20032;-67
2022/05/19 03:54:50;;;;;;;1.88;1.00;;;16.70;99.90;;;;;;5027244;28;20052;-67
2022/05/19 03:57:21;;;;;;;2.45;0.82;;;16.70;99.90;;;;;;5028395;28;20394;-66
2022/05/19 03:59:47;;;;;;;7.78;0.70;;;16.70;99.90;;;;;;5026600;28;20980;-68
2022/05/19 04:02:13;;;;;;;1.05;0.60;;;16.70;99.90;;;;;;5018941;28;20033;-66
2022/05/19 04:04:38;;;;;;;2.95;0.80;;;16.60;99.90;;;;;;5026493;28;20033;-68
2022/05/19 04:07:04;;;;;;;2.42;0.80;;;16.70;99.90;;;;;;5027143;28;20033;-68
2022/05/19 04:09:31;;;;;;;1.50;0.82;;;16.60;99.90;;;;;;5027326;28;20489;-68
2022/05/19 04:11:57;;;;;;;2.78;0.70;;;16.60;99.90;;;;;;5023995;28;20038;-67
2022/05/19 04:14:23;;;;;;;2.35;0.77;;;16.70;99.90;;;;;;5027560;28;20397;-67
2022/05/19 04:16:53;;;;;;;4.10;0.93;;;16.70;99.90;;;;;;5026091;28;20087;-67
2022/05/19 04:19:19;;;;;;;2.90;1.00;;;16.80;99.90;;;;;;5028258;28;20037;-68
2022/05/19 04:21:45;;;;;;;4.07;1.05;;;16.80;99.90;;;;;;5027256;28;20046;-68
2022/05/19 04:24:12;;;;;;;2.15;0.82;;;16.80;99.90;;;;;;5026847;28;20128;-67
2022/05/19 04:26:38;;;;;;;2.10;1.13;;;16.80;99.90;;;;;;5021402;28;20037;-67
2022/05/19 04:29:04;;;;;;;4.28;1.38;;;16.80;99.90;;;;;;5025760;28;20397;-68
2022/05/19 04:31:30;;;;;;;2.65;0.90;;;16.80;99.90;;;;;;5016143;28;20038;-68
2022/05/19 04:33:55;;;;;;;2.88;1.00;;;16.80;99.90;;;;;;5014531;28;20113;-68
2022/05/19 04:36:21;;;;;;;1.95;0.98;;;16.90;99.90;;;;;;5012036;28;20115;-68
2022/05/19 04:38:46;;;;;;;5.10;1.45;;;16.90;99.90;;;;;;5015092;28;20048;-67
2022/05/19 04:41:12;;;;;;;5.35;1.25;;;16.80;99.90;;;;;;5016103;28;20034;-67
2022/05/19 04:43:38;;;;;;;8.35;1.10;;;16.80;99.90;;;;;;5026879;28;20061;-68
2022/05/19 04:46:04;;;;;;;5.43;1.42;;;16.80;99.90;;;;;;5027319;28;20465;-68
2022/05/19 04:48:29;;;;;;;3.78;1.02;;;16.80;99.90;;;;;;5027312;28;20042;-67
2022/05/19 04:50:57;;;;;;;4.38;1.00;;;16.80;99.90;;;;;;5026533;28;20037;-68
2022/05/19 04:53:23;;;;;;;2.53;1.30;;;16.80;99.90;;;;;;5025398;28;20072;-68
2022/05/19 04:55:49;;;;;;;3.45;1.33;;;16.80;99.90;;;;;;5027514;28;20037;-68
2022/05/19 04:58:15;;;;;;;2.60;1.10;;;16.80;99.90;;;;;;5025107;28;20033;-68
2022/05/19 05:00:41;;;;;;;5.63;1.17;;;16.80;99.90;;;;;;5025593;28;20029;-68
2022/05/19 05:03:07;;;;;;;3.72;1.00;;;16.80;99.90;;;;;;5025476;28;20558;-68
2022/05/19 05:05:34;;;;;;;2.55;1.00;;;16.90;99.90;;;;;;5025112;28;20041;-68
2022/05/19 05:08:00;;;;;;;3.65;1.63;;;16.80;99.90;;;;;;5026959;28;20064;-68
2022/05/19 05:10:26;;;;;;;2.65;1.40;;;16.80;99.90;;;;;;5026654;28;20037;-68
2022/05/19 05:12:51;;;;;;;3.85;1.67;;;16.90;99.90;;;;;;5020638;28;20045;-70
2022/05/19 05:15:17;;;;;;;5.35;1.70;;;16.80;99.90;;;;;;5027019;28;20030;-68
2022/05/19 05:17:42;;;;;;;2.90;1.23;;;16.80;99.90;;;;;;5026353;28;20389;-68
2022/05/19 05:20:11;;;;;;;3.10;1.35;;;16.90;99.90;;;;;;5026622;28;20040;-68
2022/05/19 05:22:37;;;;;;;7.13;2.00;;;16.90;99.90;;;;;;5019039;28;20628;-68
2022/05/19 05:25:09;;;;;;;2.63;1.70;;;16.90;99.90;;;;;;5025243;28;20108;-68
2022/05/19 05:27:35;;;;;;;5.50;1.80;;;16.90;99.90;;;;;;5025990;28;20061;-68
2022/05/19 05:30:01;;;;;;;3.88;1.70;;;17.00;99.90;;;;;;5025559;28;20091;-69
2022/05/19 05:32:26;;;;;;;4.30;1.55;;;16.90;99.90;;;;;;5026295;28;20112;-68
2022/05/19 05:34:52;;;;;;;7.43;1.88;;;17.00;99.90;;;;;;5025812;28;20032;-68
2022/05/19 05:37:17;;;;;;;4.97;1.60;;;17.00;99.90;;;;;;5026966;28;20486;-68
2022/05/19 05:39:43;;;;;;;3.92;1.40;;;17.10;99.90;;;;;;5026028;28;20144;-68
2022/05/19 05:42:09;;;;;;;7.15;1.90;;;17.00;99.90;;;;;;5026326;28;20079;-68
2022/05/19 05:44:34;;;;;;;4.22;1.45;;;17.10;99.90;;;;;;5025824;28;20042;-68
2022/05/19 05:47:00;;;;;;;4.80;1.70;;;17.10;99.90;;;;;;5026584;28;20030;-68
2022/05/19 05:49:25;;;;;;;4.07;1.50;;;17.10;99.90;;;;;;5026806;28;20512;-68
2022/05/19 05:51:51;;;;;;;2.53;1.58;;;17.20;99.90;;;;;;5025331;28;20037;-68
2022/05/19 05:54:17;;;;;;;3.78;1.48;;;17.20;99.90;;;;;;5026448;28;20116;-69
2022/05/19 05:56:42;;;;;;;3.05;1.48;;;17.30;99.90;;;;;;5016745;28;20743;-70
2022/05/19 05:59:08;;;;;;;3.97;1.55;;;17.40;99.90;;;;;;5015551;28;20402;-68
2022/05/19 06:01:34;;;;;;;3.45;1.52;;;17.50;99.90;;;;;;5020093;28;20040;-67
2022/05/19 06:04:01;;;;;;;7.68;1.50;;;17.40;99.90;;;;;;5025336;28;20036;-68
2022/05/19 06:06:27;;;;;;;2.30;1.45;;;17.50;99.90;;;;;;5023225;28;20537;-69
2022/05/19 06:08:52;;;;;;;5.13;1.52;;;17.50;99.90;;;;;;5009964;28;20122;-68
2022/05/19 06:11:19;;;;;;;6.80;2.55;;;17.50;99.90;;;;;;5023925;28;20030;-68
2022/05/19 06:13:45;;;;;;;7.32;1.70;;;17.60;99.90;;;;;;5027304;28;20433;-69
2022/05/19 06:16:11;;;;;;;9.40;1.95;;;17.60;99.90;;;;;;5025760;28;20025;-68
2022/05/19 06:18:37;;;;;;;3.95;1.88;;;17.70;99.90;;;;;;5028486;28;20032;-68
2022/05/19 06:21:04;;;;;;;4.85;1.98;;;17.80;99.90;;;;;;5029897;28;20120;-68
2022/05/19 06:23:30;;;;;;;5.60;2.08;;;17.80;99.90;;;;;;5019679;28;20033;-69
2022/05/19 06:25:55;;;;;;;3.92;2.00;;;17.80;99.90;;;;;;5028464;28;20025;-68
2022/05/19 06:28:21;;;;;;;9.02;2.33;;;17.80;99.90;;;;;;5029871;28;20041;-69
2022/05/19 06:30:47;;;;;;;5.55;1.83;;;17.80;99.90;;;;;;5028376;28;20067;-70
2022/05/19 06:33:16;;;;;;;7.20;1.83;;;17.90;99.90;;;;;;5028947;28;20030;-68
2022/05/19 06:35:42;;;;;;;6.32;2.17;;;17.90;99.90;;;;;;5029559;28;20029;-68
2022/05/19 06:38:07;;;;;;;6.20;1.60;;;17.90;99.90;;;;;;5029736;28;20500;-68
2022/05/19 06:40:34;;;;;;;3.67;1.83;;;17.90;99.90;;;;;;5029418;28;20037;-68
2022/05/19 06:43:00;;;;;;;6.88;1.65;;;17.90;99.90;;;;;;5019706;28;20082;-68
2022/05/19 06:45:27;;;;;;;4.43;2.00;;;17.90;99.90;;;;;;5026153;28;20037;-69
2022/05/19 06:47:54;;;;;;;3.40;2.05;;;18.00;99.90;;;;;;5022184;28;20048;-68
2022/05/19 06:50:21;;;;;;;5.43;1.90;;;18.00;99.90;;;;;;5029299;28;20083;-68
2022/05/19 06:52:59;;;;;;;3.45;1.77;;;18.10;99.90;;;;;;5028616;28;20375;-68
2022/05/19 06:55:26;;;;;;;4.35;2.15;;;18.20;99.90;;;;;;5023039;28;20036;-68
2022/05/19 06:57:51;;;;;;;4.47;2.38;;;18.20;99.90;;;;;;5027315;28;20037;-68
2022/05/19 07:00:21;;;;;;;5.93;1.80;;;18.20;99.90;;;;;;5026645;28;20033;-68
2022/05/19 07:02:53;;;;;;;3.10;1.63;;;18.30;99.90;;;;;;5020561;28;20033;-69
2022/05/19 07:05:22;;;;;;;7.40;1.63;;;18.40;99.90;;;;;;5025533;28;20037;-68
2022/05/19 07:07:47;;;;;;;3.47;1.70;;;18.50;99.90;;;;;;5028604;28;20045;-69
2022/05/19 07:10:18;;;;;;;4.43;1.92;;;18.60;99.90;;;;;;5022985;28;20033;-68
2022/05/19 07:12:44;;;;;;;8.80;2.25;;;18.80;99.90;;;;;;5027363;28;20045;-68
2022/05/19 07:15:12;;;;;;;8.93;1.55;;;18.90;99.90;;;;;;5026869;28;20041;-69
2022/05/19 07:17:38;;;;;;;5.25;2.10;;;18.90;99.90;;;;;;5027556;28;20048;-69
2022/05/19 07:22:49;;;;;;;2.67;1.45;;;19.20;99.90;;;;;;5027607;28;20049;-68
2022/05/19 07:25:15;;;;;;;4.28;1.92;;;19.40;99.90;;;;;;5027545;28;20029;-69
2022/05/19 07:27:41;;;;;;;4.57;1.98;;;19.50;99.90;;;;;;5027887;28;20074;-69
2022/05/19 07:30:08;;;;;;;2.88;1.42;;;19.50;99.90;;;;;;5026540;28;20037;-68
2022/05/19 07:32:33;;;;;;;3.55;1.42;;;19.70;99.90;;;;;;5027242;28;20037;-69
2022/05/19 07:34:59;;;;;;;2.15;1.15;;;19.70;99.90;;;;;;5025313;28;20032;-69
2022/05/19 07:37:25;;;;;;;2.75;1.45;;;19.70;99.90;;;;;;5026096;28;20029;-69
2022/05/19 07:39:54;;;;;;;2.20;1.30;;;19.80;99.90;;;;;;5025896;28;20496;-69
2022/05/19 07:42:20;;;;;;;2.67;1.25;;;19.80;99.90;;;;;;5027910;28;20094;-69
2022/05/19 07:44:46;;;;;;;5.00;1.33;;;19.90;99.90;;;;;;5027197;28;20038;-68
2022/05/19 07:47:14;;;;;;;4.30;1.40;;;19.90;99.90;;;;;;5024621;28;20037;-69
2022/05/19 07:49:40;;;;;;;4.35;1.50;;;19.90;99.90;;;;;;5026350;28;20068;-69
2022/05/19 07:52:07;;;;;;;4.35;1.77;;;19.90;99.90;;;;;;5026297;28;20034;-69
2022/05/19 07:54:33;;;;;;;3.85;1.50;;;20.00;99.90;;;;;;5026725;28;20034;-69
2022/05/19 07:56:59;;;;;;;2.95;1.45;;;20.00;99.90;;;;;;5027430;28;20025;-69
2022/05/19 07:59:24;;;;;;;5.68;1.55;;;20.10;99.90;;;;;;5019540;28;20029;-70
2022/05/19 08:01:50;;;;;;;2.85;1.63;;;20.10;99.90;;;;;;5026814;28;20103;-69
2022/05/19 08:04:17;;;;;;;4.40;1.48;;;20.20;99.90;;;;;;5026978;28;20041;-69
2022/05/19 08:06:43;;;;;;;4.38;1.50;;;20.30;99.90;;;;;;5025284;28;20581;-70
2022/05/19 08:11:53;;;;;;;2.40;1.27;;;20.50;99.90;;;;;;5026609;28;20040;-69
2022/05/19 08:17:07;;;;;;;5.05;1.67;;;20.80;99.90;;;;;;5021507;28;20103;-69
2022/05/19 08:19:33;;;;;;;2.60;1.33;;;20.90;99.90;;;;;;5026701;28;20485;-69
2022/05/19 08:21:59;;;;;;;3.03;1.20;;;21.00;99.90;;;;;;5027017;28;20084;-69
2022/05/19 08:24:25;;;;;;;1.90;1.05;;;21.10;99.90;;;;;;5025270;28;20436;-69
2022/05/19 08:26:52;;;;;;;2.40;1.10;;;21.20;99.90;;;;;;5026070;28;20029;-69
2022/05/19 08:29:19;;;;;;;3.03;1.27;;;21.40;99.90;;;;;;5025590;28;20072;-68
2022/05/19 08:31:45;;;;;;;3.58;1.58;;;21.60;99.90;;;;;;5026596;28;20030;-69
2022/05/19 08:34:13;;;;;;;1.58;0.80;;;21.70;99.90;;;;;;5025253;28;20057;-70
2022/05/19 08:36:39;;;;;;;7.53;1.33;;;21.80;99.90;;;;;;5026592;28;20072;-71
2022/05/19 08:39:05;;;;;;;2.90;1.10;;;21.80;99.90;;;;;;5026623;28;20029;-69
2022/05/19 08:41:47;;;;;;;4.85;1.00;;;21.60;99.90;;;;;;5025052;28;20043;-70
2022/05/19 08:44:36;;;;;;;4.10;1.17;;;21.30;99.90;;;;;;5024402;28;20087;-69
2022/05/19 08:47:04;;;;;;;2.40;1.05;;;21.10;99.90;;;;;;5019781;28;20041;-69
2022/05/19 08:49:53;;;;;;;4.38;1.33;;;20.90;99.90;;;;;;5026234;28;20030;-69
2022/05/19 08:52:25;;;;;;;2.40;1.00;;;20.70;99.90;;;;;;5024861;28;20034;-71
2022/05/19 08:54:53;;;;;;;2.88;1.30;;;20.50;99.90;;;;;;5025981;28;20116;-69
2022/05/19 08:57:30;;;;;;;5.15;1.38;;;20.40;99.90;;;;;;5026448;28;20044;-69
2022/05/19 09:00:00;;;;;;;4.63;1.50;;;20.20;99.90;;;;;;5010879;28;20041;-70
2022/05/19 09:02:43;;;;;;;4.70;1.42;;;20.20;99.90;;;;;;5014659;28;20033;-69
2022/05/19 09:05:35;;;;;;;6.10;1.73;;;20.10;99.90;;;;;;5025897;28;20049;-69
2022/05/19 09:08:16;;;;;;;4.63;1.75;;;20.00;99.90;;;;;;5020398;28;20393;-68
2022/05/19 09:11:01;;;;;;;6.65;1.73;;;20.10;99.90;;;;;;5024709;28;20413;-69
2022/05/19 09:13:53;;;;;;;5.43;2.05;;;20.40;99.90;;;;;;5018111;28;20061;-68
2022/05/19 09:16:22;;;;;;;4.22;1.85;;;20.70;99.90;;;;;;5024355;28;20025;-68
2022/05/19 09:18:55;;;;;;;6.53;1.98;;;21.10;99.90;;;;;;5021071;28;20030;-69
2022/05/19 09:21:21;;;;;;;7.22;2.75;;;21.30;99.90;;;;;;5018126;28;20033;-68
2022/05/19 09:23:47;;;;;;;3.78;1.70;;;21.50;99.90;;;;;;5024139;28;20037;-69
2022/05/19 09:26:35;;;;;;;6.07;2.35;;;21.70;99.90;;;;;;5021512;28;20044;-69
2022/05/19 09:29:20;;;;;;;3.13;2.15;;;21.90;99.90;;;;;;5018924;28;20095;-69
2022/05/19 09:31:52;;;;;;;3.95;2.30;;;21.90;99.90;;;;;;5025952;28;20017;-68
2022/05/19 09:34:21;;;;;;;3.03;1.67;;;21.90;99.90;;;;;;5023623;28;20036;-68
2022/05/19 09:37:01;;;;;;;3.92;1.92;;;22.10;99.90;;;;;;5025509;28;20029;-68
2022/05/19 09:39:33;;;;;;;4.95;1.88;;;22.60;99.90;;;;;;5019736;28;20038;-69
2022/05/19 09:42:08;;;;;;;2.67;1.40;;;22.70;99.90;;;;;;5025358;28;20030;-69
2022/05/19 09:44:36;;;;;;;3.58;1.30;;;23.00;99.90;;;;;;5025724;28;20042;-69
2022/05/19 09:47:16;;;;;;;9.05;1.95;;;23.00;99.90;;;;;;5029204;28;20056;-68
2022/05/19 09:49:48;;;;;;;6.82;1.30;;;22.90;99.90;;;;;;5028089;28;20355;-68
2022/05/19 09:52:23;;;;;;;1.50;0.93;;;22.90;99.90;;;;;;5028989;28;20102;-69
2022/05/19 09:54:54;;;;;;;4.35;0.80;;;23.00;99.90;;;;;;5020652;28;20080;-69
2022/05/19 09:57:52;;;;;;;2.50;1.45;;;23.20;99.90;;;;;;5020458;28;20116;-69
2022/05/19 10:00:31;;;;;;;4.53;1.17;;;23.30;99.90;;;;;;5021025;28;20037;-69
2022/05/19 10:03:00;;;;;;;2.70;1.15;;;23.30;99.90;;;;;;5022863;28;20055;-69
2022/05/19 10:05:37;;;;;;;2.35;1.00;;;23.40;99.90;;;;;;5028517;28;20037;-68
2022/05/19 10:08:16;;;;;;;2.47;1.00;;;23.50;99.90;;;;;;5028808;28;20037;-69
2022/05/19 10:10:59;;;;;;;3.33;1.42;;;23.60;99.90;;;;;;5026807;28;20034;-68
2022/05/19 10:13:31;;;;;;;3.00;1.63;;;23.80;99.90;;;;;;5022707;28;20045;-68
2022/05/19 10:16:15;;;;;;;5.65;1.85;;;23.90;99.90;;;;;;5027144;28;20037;-69
2022/05/19 10:18:41;;;;;;;3.58;1.65;;;23.90;99.90;;;;;;5027598;28;21136;-69
2022/05/19 10:21:21;;;;;;;4.13;2.00;;;23.90;99.90;;;;;;5027508;28;20124;-69
2022/05/19 10:24:12;;;;;;;3.88;2.38;;;23.90;99.90;;;;;;5020803;28;20042;-68
2022/05/19 10:33:07;;;;;;;4.70;2.63;;;24.50;99.90;;;;;;5027159;28;20079;-68
2022/05/19 10:35:42;;;;;;;3.50;2.45;;;24.60;99.90;;;;;;5026208;28;20076;-68
2022/05/19 10:38:43;;;;;;;5.88;3.33;;;24.80;99.90;;;;;;5028805;28;20028;-68
2022/05/19 10:41:49;;;;;;;5.00;2.83;;;24.80;99.90;;;;;;5026666;28;20038;-68
2022/05/19 10:44:40;;;;;;;6.03;2.95;;;24.50;99.90;;;;;;5017058;28;20964;-68
2022/05/19 10:47:47;;;;;;;5.03;3.30;;;24.10;99.90;;;;;;5025765;28;20620;-68
2022/05/19 10:50:38;;;;;;;4.65;2.70;;;23.80;99.90;;;;;;5019570;28;20145;-68
2022/05/19 10:53:15;;;;;;;5.40;2.90;;;23.50;99.90;;;;;;5024593;28;20029;-69
2022/05/19 10:55:50;;;;;;;5.18;3.22;;;23.30;99.90;;;;;;5028460;28;20052;-68
2022/05/19 10:58:35;;;;;;;9.25;3.53;;;23.10;99.90;;;;;;5019967;28;20065;-68
2022/05/19 11:01:48;;;;;;;5.20;3.65;;;23.00;99.90;;;;;;5024605;28;20100;-69
2022/05/19 11:04:26;;;;;;;5.80;3.15;;;22.80;99.90;;;;;;4985015;28;20044;-68
2022/05/19 11:06:58;;;;;;;6.75;3.63;;;22.70;99.90;;;;;;5021912;28;20038;-69
2022/05/19 11:09:42;;;;;;;9.93;3.60;;;22.60;99.90;;;;;;5026728;28;20033;-68
2022/05/19 11:12:34;;;;;;;7.03;3.35;;;22.40;99.90;;;;;;5027648;28;20063;-68
2022/05/19 11:15:12;;;;;;;6.53;3.42;;;22.30;99.90;;;;;;5024237;28;20059;-68
2022/05/19 11:17:41;;;;;;;7.47;3.75;;;22.20;99.90;;;;;;5026415;28;20401;-68
2022/05/19 11:20:25;;;;;;;6.53;3.85;;;22.20;99.90;;;;;;5027898;28;20038;-68
2022/05/19 11:22:55;;;;;;;6.80;3.05;;;22.10;99.90;;;;;;5011990;28;20813;-69
2022/05/19 11:28:28;;;;;;;40.42;8.50;;;21.80;99.90;;;;;;5019292;28;20049;-69
2022/05/19 11:31:02;;;;;;;18.20;7.75;;;21.70;99.90;;;;;;5022308;28;20140;-70
2022/05/19 11:33:33;;;;;;;15.68;6.03;;;21.40;99.90;;;;;;5025288;28;20248;-70
2022/05/19 11:36:03;;;;;;;15.55;2.20;;;21.00;99.90;;;;;;5024692;28;20033;-69
2022/05/19 11:39:06;;;;;;;6.80;1.80;;;20.50;99.90;;;;;;5020788;28;20506;-69
2022/05/19 11:41:36;;;;;;;3.42;1.75;;;19.80;99.90;;;;;;4955310;28;20478;-69
2022/05/19 11:44:07;;;;;;;3.33;1.67;;;19.20;99.90;;;;;;5008775;28;20029;-69
2022/05/19 11:46:59;;;;;;;8.13;2.58;;;18.90;99.90;;;;;;5026191;28;20041;-69
2022/05/19 11:55:40;;;;;;;16.90;5.78;;;18.50;99.90;;;;;;5005629;28;20063;-69
2022/05/19 11:58:17;;;;;;;15.18;6.32;;;18.50;99.90;;;;;;5025337;28;20037;-69
2022/05/19 12:01:06;;;;;;;15.57;7.10;;;18.50;99.90;;;;;;5020355;28;20033;-70
2022/05/19 12:03:59;;;;;;;16.42;7.10;;;18.50;99.90;;;;;;5023087;28;20397;-69
2022/05/19 12:06:33;;;;;;;12.77;6.93;;;18.60;99.90;;;;;;5023456;28;20031;-69
2022/05/19 12:09:30;;;;;;;15.13;7.65;;;18.60;99.90;;;;;;5025502;28;20376;-69
2022/05/19 12:12:01;;;;;;;19.83;7.85;;;18.50;99.90;;;;;;5020661;28;20030;-69
2022/05/19 12:14:27;;;;;;;14.07;8.82;;;18.50;99.90;;;;;;5027580;28;20111;-69
2022/05/19 12:16:55;;;;;;;16.17;9.25;;;18.50;99.90;;;;;;5027080;28;20501;-70
2022/05/19 12:19:30;;;;;;;16.52;9.23;;;18.50;99.90;;;;;;5026597;28;20038;-69
2022/05/19 12:21:56;;;;;;;15.32;8.60;;;18.50;99.90;;;;;;5027202;28;20065;-69
2022/05/19 12:24:29;;;;;;;18.58;8.80;;;18.50;99.90;;;;;;5011831;28;20053;-70
2022/05/19 12:27:18;;;;;;;13.98;8.35;;;18.50;99.90;;;;;;5022556;28;20056;-69
2022/05/19 12:33:23;;;;;;;16.50;8.70;;;18.40;99.90;;;;;;5023425;28;20032;-70
2022/05/19 12:35:54;;;;;;;13.02;8.20;;;18.40;99.90;;;;;;5027232;28;20092;-70
2022/05/19 12:38:38;;;;;;;16.00;8.25;;;18.40;99.90;;;;;;5026901;28;20025;-69
2022/05/19 12:41:08;;;;;;;16.23;8.95;;;18.40;99.90;;;;;;5026255;28;20033;-70
2022/05/19 12:43:40;;;;;;;16.92;9.40;;;18.40;99.90;;;;;;5025282;28;20040;-70
2022/05/19 12:46:10;;;;;;;15.32;7.97;;;18.40;99.90;;;;;;5026176;28;20041;-70
2022/05/19 12:48:36;;;;;;;14.82;8.80;;;18.50;99.90;;;;;;5026644;28;20075;-70
2022/05/19 12:51:15;;;;;;;19.25;9.13;;;18.50;99.90;;;;;;5025988;28;20505;-70
2022/05/19 12:53:43;;;;;;;17.35;8.82;;;18.40;99.90;;;;;;5018721;28;20095;-70
2022/05/19 12:56:10;;;;;;;15.57;8.00;;;18.40;99.90;;;;;;5019106;28;20034;-70
2022/05/19 12:58:45;;;;;;;15.00;8.48;;;18.40;99.90;;;;;;5027174;28;20393;-71
2022/05/19 13:01:18;;;;;;;19.08;8.70;;;18.50;99.90;;;;;;5017976;28;20547;-70
2022/05/19 13:03:49;;;;;;;14.00;8.02;;;18.50;99.90;;;;;;5016337;28;20055;-69
2022/05/19 13:06:14;;;;;;;14.00;8.52;;;18.50;99.90;;;;;;5025091;28;20084;-69
2022/05/19 13:08:49;;;;;;;18.67;9.70;;;18.50;99.90;;;;;;5026998;28;20038;-69
2022/05/19 13:11:19;;;;;;;16.27;9.50;;;18.50;99.90;;;;;;5020776;28;20029;-69
2022/05/19 13:14:05;;;;;;;16.42;9.07;;;18.60;99.90;;;;;;5024239;28;20091;-69
2022/05/19 13:16:37;;;;;;;19.60;9.68;;;18.60;99.90;;;;;;5026665;28;20121;-69
2022/05/19 13:19:12;;;;;;;16.77;8.77;;;18.70;99.90;;;;;;5024301;28;20121;-69
2022/05/19 13:21:52;;;;;;;17.42;9.88;;;18.80;99.90;;;;;;5017430;28;20080;-69
2022/05/19 13:24:19;;;;;;;14.98;9.25;;;18.90;99.90;;;;;;5020448;28;20034;-69
2022/05/19 13:26:46;;;;;;;13.90;7.93;;;19.10;99.90;;;;;;5023730;28;20122;-70
2022/05/19 13:32:06;;;;;;;10.20;5.78;;;19.50;99.90;;;;;;5025191;28;20122;-69
2022/05/19 13:34:45;;;;;;;15.40;6.35;;;19.70;99.90;;;;;;5024573;28;20025;-70